Time;durP1;ratioP1;P1;durP2;ratioP2;P2;SDS_P1;SDS_P2;PMS_P1;PMS_P2;Temp;Humidity;BMP_temperature;BMP_pressure;BME280_temperature;BME280_humidity;BME280_pressure;Samples;Min_cycle;Max_cycle;Signal;HPM_P1;HPM_P2
2022/06/20 00:02:02;;;;;;;4.60;1.73;;;13.50;99.90;;;;;;4770449;30;20047;-68
2022/06/20 00:04:28;;;;;;;5.20;1.88;;;13.50;99.90;;;;;;4788417;29;20047;-68
2022/06/20 00:06:54;;;;;;;7.90;2.20;;;13.50;99.90;;;;;;4788395;29;20051;-69
2022/06/20 00:09:19;;;;;;;8.07;2.03;;;13.40;99.90;;;;;;4773271;30;20086;-69
2022/06/20 00:11:50;;;;;;;5.47;1.90;;;13.40;99.90;;;;;;4788398;30;20055;-69
2022/06/20 00:14:19;;;;;;;6.13;1.80;;;13.40;99.90;;;;;;4771997;30;20458;-68
2022/06/20 00:16:45;;;;;;;6.80;1.83;;;13.70;99.90;;;;;;4771970;30;20051;-69
2022/06/20 00:19:11;;;;;;;5.30;1.70;;;13.30;99.90;;;;;;4772937;30;20116;-70
2022/06/20 00:21:38;;;;;;;4.15;2.08;;;13.30;99.90;;;;;;4771387;30;20055;-70
2022/06/20 00:24:04;;;;;;;5.00;2.03;;;13.20;99.90;;;;;;4772524;30;20400;-69
2022/06/20 00:26:30;;;;;;;5.05;1.88;;;13.20;99.90;;;;;;4772681;30;20054;-70
2022/06/20 00:28:56;;;;;;;6.32;1.80;;;13.20;99.90;;;;;;4772546;30;20084;-70
2022/06/20 00:31:22;;;;;;;7.25;2.22;;;13.10;99.90;;;;;;4769998;30;20104;-69
2022/06/20 00:33:49;;;;;;;7.30;2.13;;;13.10;99.90;;;;;;4770978;30;20043;-69
2022/06/20 00:36:15;;;;;;;3.40;1.55;;;13.00;99.90;;;;;;4758793;30;20113;-70
2022/06/20 00:38:42;;;;;;;8.20;2.55;;;13.00;99.90;;;;;;4772754;30;20138;-69
2022/06/20 00:41:24;;;;;;;6.45;1.63;;;13.00;99.90;;;;;;4787454;30;20047;-70
2022/06/20 00:43:52;;;;;;;2.50;1.92;;;12.90;99.90;;;;;;4772196;30;20389;-66
2022/06/20 00:46:35;;;;;;;4.78;1.83;;;12.90;99.90;;;;;;4771730;30;20055;-68
2022/06/20 00:49:17;;;;;;;4.78;1.65;;;12.90;99.90;;;;;;4787580;30;20362;-68
2022/06/20 00:52:03;;;;;;;4.68;2.30;;;12.90;99.90;;;;;;4779850;30;20086;-68
2022/06/20 00:54:51;;;;;;;4.50;1.77;;;12.90;99.90;;;;;;4788391;30;20137;-68
2022/06/20 00:57:33;;;;;;;7.18;2.22;;;12.90;99.90;;;;;;4768773;30;20486;-69
2022/06/20 01:00:12;;;;;;;4.68;1.90;;;12.90;99.90;;;;;;4770340;30;20052;-68
2022/06/20 01:02:42;;;;;;;4.70;1.98;;;13.00;99.90;;;;;;4784950;29;20055;-69
2022/06/20 01:05:24;;;;;;;7.60;2.22;;;13.00;99.90;;;;;;4772011;30;20082;-69
2022/06/20 01:08:09;;;;;;;6.45;2.40;;;13.00;99.90;;;;;;4796641;29;20066;-70
2022/06/20 01:11:27;;;;;;;5.40;2.33;;;13.10;99.90;;;;;;4804876;29;20394;-70
2022/06/20 01:13:53;;;;;;;7.57;2.30;;;13.10;99.90;;;;;;4766336;30;20078;-69
2022/06/20 01:16:29;;;;;;;7.18;2.05;;;13.10;99.90;;;;;;4769867;30;20059;-70
2022/06/20 01:19:00;;;;;;;8.60;2.28;;;13.10;99.90;;;;;;4768650;30;20063;-69
2022/06/20 01:21:33;;;;;;;6.55;2.50;;;13.20;99.90;;;;;;4770262;30;20477;-69
2022/06/20 01:24:23;;;;;;;7.53;2.63;;;13.20;99.90;;;;;;4770144;30;20055;-68
2022/06/20 01:26:49;;;;;;;7.95;2.50;;;13.20;99.90;;;;;;4769395;30;20428;-69
2022/06/20 01:29:15;;;;;;;6.57;2.25;;;13.20;99.90;;;;;;4769667;30;20055;-69
2022/06/20 01:32:00;;;;;;;5.28;2.40;;;13.10;99.90;;;;;;4768166;30;20138;-68
2022/06/20 01:34:25;;;;;;;7.38;2.92;;;13.10;99.90;;;;;;4770210;30;20094;-70
2022/06/20 01:39:44;;;;;;;6.57;2.75;;;13.10;99.90;;;;;;4768456;30;20083;-69
2022/06/20 01:42:20;;;;;;;5.30;2.08;;;13.10;99.90;;;;;;4768687;30;20086;-68
2022/06/20 01:45:01;;;;;;;5.18;2.28;;;13.10;99.90;;;;;;4765269;30;20484;-69
2022/06/20 01:47:27;;;;;;;5.55;2.40;;;13.00;99.90;;;;;;4761863;30;20135;-70
2022/06/20 01:49:59;;;;;;;6.05;2.50;;;13.00;99.90;;;;;;4769121;30;20055;-68
2022/06/20 01:52:33;;;;;;;5.05;2.50;;;13.00;99.90;;;;;;4768231;30;20059;-70
2022/06/20 01:55:07;;;;;;;6.07;2.30;;;13.00;99.90;;;;;;4753898;30;20504;-70
2022/06/20 01:57:35;;;;;;;4.70;2.13;;;13.00;99.90;;;;;;4768801;30;20079;-68
2022/06/20 02:00:07;;;;;;;7.88;2.67;;;12.90;99.90;;;;;;4769935;30;20060;-69
2022/06/20 02:02:38;;;;;;;6.13;2.28;;;12.90;99.90;;;;;;4768370;30;20059;-68
2022/06/20 02:05:08;;;;;;;7.25;2.90;;;12.90;99.90;;;;;;4767889;30;20060;-68
2022/06/20 02:07:35;;;;;;;8.05;2.42;;;12.80;99.90;;;;;;4768264;30;20541;-69
2022/06/20 02:10:04;;;;;;;11.77;2.83;;;12.80;99.90;;;;;;4768734;30;20135;-69
2022/06/20 02:12:32;;;;;;;5.63;2.88;;;12.70;99.90;;;;;;4767523;30;20443;-69
2022/06/20 02:15:00;;;;;;;8.35;2.88;;;12.60;99.90;;;;;;4767738;30;20085;-70
2022/06/20 02:17:47;;;;;;;5.50;2.72;;;12.60;99.90;;;;;;4768209;30;20060;-69
2022/06/20 02:20:18;;;;;;;5.32;2.70;;;12.50;99.90;;;;;;4768104;30;20058;-69
2022/06/20 02:22:45;;;;;;;5.37;2.77;;;12.50;99.90;;;;;;4769593;30;20048;-70
2022/06/20 02:25:18;;;;;;;6.30;2.45;;;12.50;99.90;;;;;;4768956;30;20305;-70
2022/06/20 02:27:50;;;;;;;5.07;2.47;;;12.50;99.90;;;;;;4768054;30;20056;-69
2022/06/20 02:30:15;;;;;;;5.65;2.65;;;12.40;99.90;;;;;;4769522;30;20411;-70
2022/06/20 02:32:45;;;;;;;8.35;2.63;;;12.40;99.90;;;;;;4767870;30;20060;-70
2022/06/20 02:35:14;;;;;;;7.82;2.78;;;12.40;99.90;;;;;;4768676;30;20494;-70
2022/06/20 02:37:40;;;;;;;8.93;3.10;;;12.30;99.90;;;;;;4768011;30;20140;-69
2022/06/20 02:40:10;;;;;;;6.13;2.20;;;12.30;99.90;;;;;;4768264;30;20488;-69
2022/06/20 02:42:43;;;;;;;4.97;2.10;;;12.20;99.90;;;;;;4766256;30;20056;-69
2022/06/20 02:45:11;;;;;;;8.48;2.85;;;12.10;99.90;;;;;;4767529;30;20066;-68
2022/06/20 02:47:59;;;;;;;4.63;2.70;;;12.10;99.90;;;;;;4768864;30;20174;-70
2022/06/20 02:50:33;;;;;;;5.20;2.28;;;12.00;99.90;;;;;;4772675;30;20066;-70
2022/06/20 02:53:04;;;;;;;6.50;2.88;;;12.00;99.90;;;;;;4772669;30;20073;-69
2022/06/20 02:55:32;;;;;;;7.03;3.10;;;11.90;99.90;;;;;;4771782;30;20059;-69
2022/06/20 02:58:03;;;;;;;4.70;2.08;;;11.90;99.90;;;;;;4772318;30;20317;-70
2022/06/20 03:00:37;;;;;;;4.97;2.20;;;11.80;99.90;;;;;;4755415;30;20561;-69
2022/06/20 03:03:10;;;;;;;6.25;2.85;;;11.80;99.90;;;;;;4769762;30;20071;-69
2022/06/20 03:05:38;;;;;;;3.97;2.17;;;11.70;99.90;;;;;;4772874;30;20059;-69
2022/06/20 03:08:04;;;;;;;5.55;2.70;;;11.70;99.90;;;;;;4770795;30;20056;-68
2022/06/20 03:10:41;;;;;;;5.10;2.55;;;11.60;99.90;;;;;;4763239;30;20074;-68
2022/06/20 03:13:08;;;;;;;7.85;2.78;;;11.60;99.90;;;;;;4784066;29;20094;-69
2022/06/20 03:15:36;;;;;;;7.18;2.42;;;11.50;99.90;;;;;;4789706;29;20350;-68
2022/06/20 03:18:04;;;;;;;3.78;2.10;;;11.40;99.90;;;;;;4789556;29;20127;-69
2022/06/20 03:20:29;;;;;;;8.10;2.83;;;11.40;99.90;;;;;;4788800;29;20430;-68
2022/06/20 03:23:06;;;;;;;6.47;2.38;;;11.40;99.90;;;;;;4790083;30;20070;-70
2022/06/20 03:25:32;;;;;;;4.60;2.33;;;11.30;99.90;;;;;;4773721;30;20055;-68
2022/06/20 03:27:57;;;;;;;6.47;2.33;;;11.30;99.90;;;;;;4789295;29;20055;-70
2022/06/20 03:30:33;;;;;;;3.47;2.38;;;11.30;99.90;;;;;;4773586;30;20089;-70
2022/06/20 03:33:02;;;;;;;3.28;2.25;;;11.30;99.90;;;;;;4773025;29;20051;-69
2022/06/20 03:35:30;;;;;;;6.65;2.58;;;11.20;99.90;;;;;;4773902;30;20055;-69
2022/06/20 03:38:04;;;;;;;7.70;2.85;;;11.20;99.90;;;;;;4789609;30;20104;-70
2022/06/20 03:40:30;;;;;;;9.07;3.10;;;11.20;99.90;;;;;;4772669;30;20065;-69
2022/06/20 03:42:58;;;;;;;5.88;2.42;;;11.20;99.90;;;;;;4787457;29;20056;-69
2022/06/20 03:45:31;;;;;;;4.70;2.90;;;11.20;99.90;;;;;;4773923;30;20059;-70
2022/06/20 03:48:03;;;;;;;5.90;2.70;;;11.20;99.90;;;;;;4772901;30;20106;-68
2022/06/20 03:50:37;;;;;;;9.80;2.90;;;11.20;99.90;;;;;;4772751;30;20458;-69
2022/06/20 03:53:08;;;;;;;6.88;2.75;;;11.20;99.90;;;;;;4789578;30;20171;-69
2022/06/20 03:55:42;;;;;;;4.32;2.70;;;11.10;99.90;;;;;;4788530;30;20058;-69
2022/06/20 03:58:17;;;;;;;8.00;2.97;;;11.20;99.90;;;;;;4789325;30;20093;-70
2022/06/20 04:00:57;;;;;;;4.65;2.72;;;11.10;99.90;;;;;;4772196;30;20097;-69
2022/06/20 04:03:29;;;;;;;5.78;2.83;;;11.20;99.90;;;;;;4788666;29;20055;-69
2022/06/20 04:06:02;;;;;;;11.38;3.00;;;11.20;99.90;;;;;;4772919;29;20411;-69
2022/06/20 04:11:45;;;;;;;9.23;2.95;;;11.30;99.90;;;;;;4772095;30;20047;-69
2022/06/20 04:14:17;;;;;;;12.55;3.33;;;11.20;99.90;;;;;;4789347;30;20063;-68
2022/06/20 04:16:49;;;;;;;7.30;3.10;;;11.20;99.90;;;;;;4788952;30;20384;-68
2022/06/20 04:19:17;;;;;;;;;;;11.30;99.90;;;;;;4771858;30;20108;-68
2022/06/20 04:21:58;;;;;;;6.70;2.30;;;11.30;99.90;;;;;;4789315;29;19921;-69
2022/06/20 04:24:31;;;;;;;5.28;2.70;;;11.40;99.90;;;;;;4772180;30;20051;-69
2022/06/20 04:27:04;;;;;;;6.32;2.67;;;11.40;99.90;;;;;;4788988;30;20043;-70
2022/06/20 04:29:52;;;;;;;6.20;2.92;;;11.50;99.90;;;;;;4771595;30;20086;-68
2022/06/20 04:32:35;;;;;;;6.75;2.88;;;11.70;99.90;;;;;;4786400;30;20047;-68
2022/06/20 04:35:13;;;;;;;7.88;2.75;;;11.90;99.90;;;;;;4771342;30;20382;-69
2022/06/20 04:37:46;;;;;;;5.38;2.22;;;12.00;99.90;;;;;;4787621;30;20461;-69
2022/06/20 04:40:17;;;;;;;4.55;2.65;;;12.10;99.90;;;;;;4770986;30;20063;-69
2022/06/20 04:42:51;;;;;;;3.38;2.65;;;12.20;99.90;;;;;;4772621;30;20482;-68
2022/06/20 04:45:32;;;;;;;5.47;2.67;;;12.20;99.90;;;;;;4788810;30;20051;-68
2022/06/20 04:48:15;;;;;;;4.22;2.55;;;12.30;99.90;;;;;;4787694;30;20062;-70
2022/06/20 04:50:45;;;;;;;7.53;3.00;;;12.50;99.90;;;;;;4772138;30;20059;-68
2022/06/20 04:53:20;;;;;;;5.53;2.80;;;12.60;99.90;;;;;;4785156;29;20138;-70
2022/06/20 04:55:50;;;;;;;7.22;3.03;;;12.70;99.90;;;;;;4788051;30;20338;-69
2022/06/20 04:58:21;;;;;;;5.80;3.00;;;12.70;99.90;;;;;;4787290;29;20601;-69
2022/06/20 05:00:49;;;;;;;5.80;3.08;;;12.80;99.90;;;;;;4787958;30;20120;-70
2022/06/20 05:03:23;;;;;;;5.07;2.90;;;12.80;99.90;;;;;;4771978;30;20039;-70
2022/06/20 05:05:52;;;;;;;5.57;3.28;;;12.80;99.90;;;;;;4771226;30;20051;-69
2022/06/20 05:08:28;;;;;;;7.25;2.75;;;12.80;99.90;;;;;;4770406;29;20059;-68
2022/06/20 05:11:44;;;;;;;5.65;3.08;;;12.80;99.90;;;;;;4786584;29;20067;-69
2022/06/20 05:14:22;;;;;;;8.57;3.17;;;12.90;99.90;;;;;;4748573;30;20139;-67
2022/06/20 05:16:51;;;;;;;8.55;3.15;;;12.90;99.90;;;;;;4751137;30;20479;-69
2022/06/20 05:19:39;;;;;;;5.95;2.55;;;13.00;99.90;;;;;;4749567;30;20135;-70
2022/06/20 05:25:47;;;;;;;11.88;2.97;;;13.30;99.90;;;;;;4750733;30;20097;-69
2022/06/20 05:28:18;;;;;;;4.55;2.90;;;13.40;99.90;;;;;;4749674;30;20052;-69
2022/06/20 05:45:30;;;;;;;6.75;2.63;;;19.40;99.90;;;;;;4751063;30;20043;-68
2022/06/20 05:47:59;;;;;;;6.45;2.53;;;20.10;99.90;;;;;;4763580;30;20048;-69
2022/06/20 05:50:37;;;;;;;7.32;2.42;;;20.50;99.90;;;;;;4750936;30;20052;-68
2022/06/20 05:53:09;;;;;;;5.93;2.40;;;20.50;99.90;;;;;;4750940;30;20044;-68
2022/06/20 05:55:56;;;;;;;8.80;2.67;;;21.00;99.90;;;;;;4751142;30;20063;-69
2022/06/20 05:58:35;;;;;;;6.75;2.60;;;21.10;99.90;;;;;;4749840;30;20063;-68
2022/06/20 06:01:10;;;;;;;6.57;2.40;;;21.20;99.90;;;;;;4743562;30;20044;-69
2022/06/20 06:03:44;;;;;;;5.05;2.50;;;21.20;99.90;;;;;;4750482;30;20113;-68
2022/06/20 06:06:19;;;;;;;8.13;2.78;;;21.10;99.90;;;;;;4751275;30;20185;-68
2022/06/20 06:08:56;;;;;;;5.45;3.05;;;21.10;99.90;;;;;;4748314;30;20087;-69
2022/06/20 06:11:34;;;;;;;5.85;2.58;;;21.10;99.90;;;;;;4765150;30;20052;-69
2022/06/20 06:14:24;;;;;;;6.85;2.75;;;20.80;99.90;;;;;;4787053;29;20561;-68
2022/06/20 06:17:05;;;;;;;6.47;2.60;;;20.80;99.90;;;;;;4770147;30;20067;-69
2022/06/20 06:19:40;;;;;;;7.22;3.17;;;20.60;99.90;;;;;;4786811;30;20047;-69
2022/06/20 06:22:37;;;;;;;9.25;2.78;;;21.10;99.90;;;;;;4770458;29;20374;-69
2022/06/20 06:25:21;;;;;;;6.18;2.78;;;21.40;99.90;;;;;;4789672;30;20384;-69
2022/06/20 06:27:49;;;;;;;9.00;2.70;;;21.30;99.90;;;;;;4773420;29;20394;-71
2022/06/20 06:31:06;;;;;;;6.30;2.83;;;21.10;99.90;;;;;;4774475;30;20433;-69
2022/06/20 06:38:17;;;;;;;6.43;3.35;;;20.50;99.90;;;;;;4735071;30;20125;-68
2022/06/20 06:40:51;;;;;;;9.98;3.30;;;19.40;99.90;;;;;;4736628;30;20044;-69
2022/06/20 06:43:24;;;;;;;9.02;3.42;;;18.80;99.90;;;;;;4774420;30;20051;-69
2022/06/20 06:45:53;;;;;;;9.43;3.40;;;18.40;99.90;;;;;;4774046;30;20450;-70
2022/06/20 06:48:42;;;;;;;7.75;2.97;;;18.10;99.90;;;;;;4774238;30;20050;-68
2022/06/20 06:51:21;;;;;;;8.40;3.20;;;17.50;99.90;;;;;;4788832;29;20393;-68
2022/06/20 06:53:53;;;;;;;9.10;3.25;;;17.20;99.90;;;;;;4789276;29;20477;-70
2022/06/20 06:56:27;;;;;;;6.50;2.88;;;17.00;99.90;;;;;;4789816;30;20114;-68
2022/06/20 06:59:13;;;;;;;6.85;2.92;;;16.50;99.90;;;;;;4790375;30;20055;-68
2022/06/20 07:01:44;;;;;;;10.55;3.13;;;16.50;99.90;;;;;;4789750;30;20481;-70
2022/06/20 07:04:18;;;;;;;6.97;2.88;;;16.50;99.90;;;;;;4790601;30;20111;-70
2022/06/20 07:06:49;;;;;;;5.65;2.53;;;16.40;99.90;;;;;;4790163;30;20489;-70
2022/06/20 07:09:17;;;;;;;7.90;2.75;;;16.00;99.90;;;;;;4774432;30;20066;-70
2022/06/20 07:11:53;;;;;;;7.75;2.95;;;16.10;99.90;;;;;;4774068;30;20506;-69
2022/06/20 07:14:21;;;;;;;6.55;2.70;;;16.20;99.90;;;;;;4774391;30;20483;-68
2022/06/20 07:17:08;;;;;;;8.02;3.00;;;16.40;99.90;;;;;;4773510;30;20055;-68
2022/06/20 07:19:38;;;;;;;7.07;2.80;;;16.80;99.90;;;;;;4772961;30;20070;-68
2022/06/20 07:22:04;;;;;;;7.35;3.08;;;17.10;99.90;;;;;;4774290;30;20062;-68
2022/06/20 07:24:33;;;;;;;7.43;3.00;;;17.10;99.90;;;;;;4790244;30;20059;-71
2022/06/20 07:27:16;;;;;;;5.97;2.42;;;17.00;99.90;;;;;;4789995;30;20059;-68
2022/06/20 07:30:07;;;;;;;7.50;2.90;;;17.00;99.90;;;;;;4759091;30;20058;-70
2022/06/20 07:32:53;;;;;;;6.70;2.58;;;17.00;99.90;;;;;;4773173;30;20055;-69
2022/06/20 07:35:27;;;;;;;4.97;2.22;;;17.00;99.90;;;;;;4773344;30;20541;-67
2022/06/20 07:38:03;;;;;;;6.85;2.28;;;17.20;99.90;;;;;;4789611;30;20157;-69
2022/06/20 07:40:42;;;;;;;5.85;2.53;;;17.30;99.90;;;;;;4773533;30;20596;-69
2022/06/20 07:43:16;;;;;;;5.28;2.30;;;17.30;99.90;;;;;;4789079;30;20066;-69
2022/06/20 07:45:48;;;;;;;6.20;2.30;;;17.50;99.90;;;;;;4788880;29;20074;-68
2022/06/20 07:48:25;;;;;;;4.05;2.10;;;17.60;99.90;;;;;;4788739;29;20063;-68
2022/06/20 07:51:09;;;;;;;5.60;2.20;;;17.70;99.90;;;;;;4789304;30;20074;-68
2022/06/20 07:53:55;;;;;;;5.60;2.38;;;17.70;99.90;;;;;;4789526;29;20055;-67
2022/06/20 07:56:30;;;;;;;7.18;2.50;;;18.00;99.90;;;;;;4797033;29;20078;-68
2022/06/20 07:59:04;;;;;;;6.78;2.28;;;18.10;99.90;;;;;;4772692;30;20131;-68
2022/06/20 08:01:39;;;;;;;7.20;2.75;;;18.20;99.90;;;;;;4788839;29;20059;-67
2022/06/20 08:04:10;;;;;;;5.22;2.70;;;18.50;99.90;;;;;;4772513;30;20055;-68
2022/06/20 08:07:12;;;;;;;4.38;2.55;;;18.90;99.90;;;;;;4787839;29;20131;-68
2022/06/20 08:10:04;;;;;;;7.10;2.58;;;19.00;99.90;;;;;;4772888;29;20560;-69
2022/06/20 08:12:42;;;;;;;7.72;2.47;;;18.80;99.90;;;;;;4785132;29;20132;-68
2022/06/20 08:15:22;;;;;;;5.20;2.30;;;18.50;99.90;;;;;;4789509;29;20066;-70
2022/06/20 08:17:48;;;;;;;7.88;2.42;;;18.00;99.90;;;;;;4788626;30;20043;-70
2022/06/20 08:20:15;;;;;;;8.35;2.50;;;17.90;99.90;;;;;;4772446;30;20047;-68
2022/06/20 08:22:56;;;;;;;5.90;2.42;;;18.00;99.90;;;;;;4773420;30;20445;-69
2022/06/20 08:25:25;;;;;;;6.78;2.50;;;18.40;99.90;;;;;;4788443;29;20090;-69
2022/06/20 08:27:57;;;;;;;9.68;2.92;;;18.70;99.90;;;;;;4789077;30;20058;-68
2022/06/20 08:31:00;;;;;;;4.43;2.10;;;19.00;99.90;;;;;;4788186;29;20142;-67
2022/06/20 08:33:35;;;;;;;5.57;2.10;;;19.00;99.90;;;;;;4746178;29;20055;-68
2022/06/20 08:36:25;;;;;;;7.03;2.30;;;19.10;99.90;;;;;;4772534;30;20051;-69
2022/06/20 08:39:08;;;;;;;4.93;2.10;;;19.20;99.90;;;;;;4772788;30;20059;-69
2022/06/20 08:41:48;;;;;;;7.82;2.47;;;19.30;99.90;;;;;;4788808;30;20058;-68
2022/06/20 08:44:37;;;;;;;5.10;2.33;;;19.50;99.90;;;;;;4771568;30;20063;-68
2022/06/20 08:47:47;;;;;;;9.05;2.28;;;19.70;98.50;;;;;;4772369;30;20307;-68
2022/06/20 08:50:41;;;;;;;4.30;1.70;;;19.90;95.00;;;;;;4771672;29;20075;-68
2022/06/20 08:53:28;;;;;;;5.15;2.20;;;19.80;87.60;;;;;;4770518;30;20055;-68
2022/06/20 08:56:13;;;;;;;6.28;1.98;;;19.60;86.50;;;;;;4769857;30;20063;-68
2022/06/20 08:58:44;;;;;;;5.95;2.10;;;19.30;99.90;;;;;;4770729;30;20055;-69
2022/06/20 09:01:29;;;;;;;8.20;2.23;;;18.80;98.80;;;;;;4769126;30;20154;-68
2022/06/20 09:04:26;;;;;;;5.88;2.17;;;18.60;99.90;;;;;;4770099;30;20302;-70
2022/06/20 09:07:07;;;;;;;1.90;1.30;;;18.60;99.10;;;;;;4769568;29;20070;-67
2022/06/20 09:09:48;;;;;;;4.72;1.80;;;18.70;78.90;;;;;;4772255;30;20098;-68
2022/06/20 09:12:46;;;;;;;4.13;1.20;;;18.60;97.50;;;;;;4788122;29;20057;-69
2022/06/20 09:15:56;;;;;;;3.00;1.38;;;18.70;90.80;;;;;;4771924;29;20393;-69
2022/06/20 09:18:57;;;;;;;4.68;1.10;;;18.90;80.90;;;;;;4771708;30;20058;-69
2022/06/20 09:21:28;;;;;;;4.80;1.00;;;19.20;77.10;;;;;;4771276;29;20151;-68
2022/06/20 09:24:03;;;;;;;2.08;1.17;;;19.60;85.10;;;;;;4770894;30;20485;-68
2022/06/20 09:26:45;;;;;;;3.28;1.58;;;19.70;79.80;;;;;;4788386;30;20142;-68
2022/06/20 09:29:27;;;;;;;4.80;1.60;;;19.70;72.60;;;;;;4787984;30;20144;-68
2022/06/20 09:32:01;;;;;;;;;;;19.60;83.40;;;;;;4770222;30;20104;-68
2022/06/20 09:34:57;;;;;;;1.77;1.20;;;19.20;82.20;;;;;;4786536;30;20017;-69
2022/06/20 09:37:58;;;;;;;3.20;1.30;;;18.90;94.70;;;;;;4786873;30;20100;-68
2022/06/20 09:40:42;;;;;;;2.60;1.27;;;18.70;97.00;;;;;;4787569;30;20393;-68
2022/06/20 09:43:11;;;;;;;3.40;1.40;;;19.20;99.30;;;;;;4770754;30;20473;-68
2022/06/20 09:45:58;;;;;;;2.25;1.27;;;19.40;96.80;;;;;;4771332;30;20084;-68
2022/06/20 09:48:39;;;;;;;3.05;1.55;;;19.40;96.00;;;;;;4770082;30;20079;-69
2022/06/20 09:51:36;;;;;;;3.95;1.60;;;19.40;97.50;;;;;;4770817;30;20062;-69
2022/06/20 09:54:37;;;;;;;3.25;1.45;;;19.40;80.20;;;;;;4771713;30;20534;-68
2022/06/20 09:57:27;;;;;;;4.47;1.52;;;19.30;90.50;;;;;;4770098;30;20078;-68
2022/06/20 09:59:57;;;;;;;6.30;1.85;;;19.40;93.70;;;;;;4773112;29;20055;-68
2022/06/20 10:02:34;;;;;;;6.00;1.83;;;19.40;95.20;;;;;;4759909;30;20060;-70
2022/06/20 10:05:16;;;;;;;5.43;2.00;;;19.20;95.10;;;;;;4769076;30;20056;-68
2022/06/20 10:07:46;;;;;;;2.42;1.45;;;19.20;96.10;;;;;;4768278;30;20059;-68
2022/06/20 10:10:35;;;;;;;4.45;1.60;;;19.10;96.70;;;;;;4768735;30;20044;-68
2022/06/20 10:13:29;;;;;;;3.20;1.63;;;19.20;87.30;;;;;;4767878;30;20064;-69
2022/06/20 10:16:19;;;;;;;3.10;1.38;;;19.20;85.00;;;;;;4780635;29;20105;-69
2022/06/20 10:19:05;;;;;;;3.88;1.50;;;19.20;84.30;;;;;;4784561;29;20051;-68
2022/06/20 10:21:55;;;;;;;6.78;1.75;;;19.40;92.00;;;;;;4769922;30;20142;-68
2022/06/20 10:24:42;;;;;;;4.13;1.30;;;19.10;82.80;;;;;;4769986;30;20090;-67
2022/06/20 10:27:38;;;;;;;5.55;1.77;;;18.80;79.70;;;;;;4781841;29;20047;-70
2022/06/20 10:30:14;;;;;;;3.83;1.50;;;18.90;91.00;;;;;;4762257;29;20058;-69
2022/06/20 10:33:04;;;;;;;4.30;1.60;;;19.10;92.30;;;;;;4785635;30;20409;-67
2022/06/20 10:35:44;;;;;;;7.45;1.65;;;19.40;90.70;;;;;;4787102;30;20473;-68
2022/06/20 10:38:37;;;;;;;4.20;1.65;;;19.50;90.70;;;;;;4785988;29;20130;-68
2022/06/20 10:41:08;;;;;;;2.17;1.30;;;19.40;91.70;;;;;;4786537;29;20082;-68
2022/06/20 10:43:44;;;;;;;4.93;1.73;;;19.20;93.80;;;;;;4787221;30;20055;-69
2022/06/20 10:46:46;;;;;;;4.57;1.70;;;19.10;93.50;;;;;;4783742;29;20528;-68
2022/06/20 10:49:21;;;;;;;5.57;2.03;;;19.10;99.20;;;;;;4779356;29;20059;-70
2022/06/20 10:52:16;;;;;;;3.60;1.60;;;19.20;98.40;;;;;;4784408;29;20051;-70
2022/06/20 10:55:20;;;;;;;6.78;2.13;;;19.50;98.20;;;;;;4787473;29;20138;-67
2022/06/20 10:58:20;;;;;;;3.95;1.58;;;19.70;94.70;;;;;;4767997;29;20054;-68
2022/06/20 11:00:55;;;;;;;5.93;1.98;;;19.80;91.20;;;;;;4783183;29;20055;-68
2022/06/20 11:03:41;;;;;;;4.43;1.50;;;19.70;93.50;;;;;;4755877;30;20039;-68
2022/06/20 11:06:37;;;;;;;4.65;1.42;;;19.50;83.30;;;;;;4782971;30;20109;-69
2022/06/20 11:09:14;;;;;;;3.08;1.45;;;19.30;93.50;;;;;;4772263;30;20135;-69
2022/06/20 11:12:12;;;;;;;5.25;1.35;;;19.20;94.00;;;;;;4790187;30;20082;-67
2022/06/20 11:15:12;;;;;;;3.83;1.40;;;19.60;90.90;;;;;;4789063;29;20043;-69
2022/06/20 11:17:49;;;;;;;3.47;1.27;;;19.70;87.40;;;;;;4781024;30;20087;-67
2022/06/20 11:20:19;;;;;;;6.05;1.50;;;20.00;85.40;;;;;;4789995;29;20203;-69
2022/06/20 11:23:00;;;;;;;2.45;1.23;;;20.20;76.90;;;;;;4790193;29;20051;-70
2022/06/20 11:25:41;;;;;;;2.97;1.57;;;20.40;78.00;;;;;;4790360;30;20065;-68
2022/06/20 11:28:39;;;;;;;3.30;1.48;;;20.60;67.60;;;;;;4773606;30;20051;-69
2022/06/20 11:31:15;;;;;;;3.67;1.40;;;20.60;66.90;;;;;;4773207;30;20076;-69
2022/06/20 11:34:06;;;;;;;4.00;1.80;;;20.30;65.90;;;;;;4790634;30;20059;-68
2022/06/20 11:36:43;;;;;;;4.93;1.40;;;19.90;64.60;;;;;;4789848;30;20074;-67
2022/06/20 11:39:18;;;;;;;3.25;1.48;;;19.70;68.00;;;;;;4773689;30;20063;-68
2022/06/20 11:42:08;;;;;;;4.05;1.60;;;19.90;73.40;;;;;;4789663;30;20057;-69
2022/06/20 11:44:59;;;;;;;4.40;1.60;;;20.30;74.30;;;;;;4789005;29;20471;-67
2022/06/20 11:47:52;;;;;;;3.42;1.38;;;20.60;66.80;;;;;;4789420;30;20100;-68
2022/06/20 11:50:40;;;;;;;2.90;1.23;;;20.80;61.00;;;;;;4773108;30;20138;-68
2022/06/20 11:53:15;;;;;;;3.60;1.50;;;20.90;60.80;;;;;;4771669;30;20069;-70
2022/06/20 11:55:48;;;;;;;4.15;1.38;;;20.80;62.60;;;;;;4775272;30;20059;-69
2022/06/20 11:58:50;;;;;;;4.10;1.52;;;20.60;60.60;;;;;;4789173;30;20047;-68
2022/06/20 12:01:20;;;;;;;;;;;20.60;61.10;;;;;;4789337;30;20139;-68
2022/06/20 12:04:07;;;;;;;3.60;1.42;;;20.60;62.20;;;;;;4773542;30;20248;-69
2022/06/20 12:06:39;;;;;;;3.65;1.30;;;20.70;62.90;;;;;;4787538;29;20497;-69
2022/06/20 12:09:19;;;;;;;5.40;1.80;;;20.80;64.00;;;;;;4772003;29;20065;-69
2022/06/20 12:12:03;;;;;;;4.72;1.70;;;20.60;62.80;;;;;;4773163;30;20090;-67
2022/06/20 12:14:50;;;;;;;4.97;1.80;;;20.50;66.10;;;;;;4787881;29;20059;-68
2022/06/20 12:17:16;;;;;;;6.60;2.22;;;20.30;69.60;;;;;;4787889;29;20392;-67
2022/06/20 12:37:17;;;;;;;4.28;1.60;;;20.30;67.50;;;;;;4769858;30;20063;-68
2022/06/20 12:39:57;;;;;;;4.38;1.80;;;20.30;66.60;;;;;;4770960;30;20051;-68
2022/06/20 12:42:39;;;;;;;3.42;1.77;;;20.20;66.30;;;;;;4771395;30;20063;-66
2022/06/20 12:45:41;;;;;;;4.05;1.85;;;19.90;71.00;;;;;;4786728;30;20112;-67
2022/06/20 12:48:25;;;;;;;3.47;2.03;;;19.90;74.30;;;;;;4786201;30;20089;-68
2022/06/20 12:51:10;;;;;;;4.80;1.95;;;19.60;77.40;;;;;;4771007;30;20297;-68
2022/06/20 12:54:06;;;;;;;3.70;1.88;;;19.30;90.00;;;;;;4770881;30;20498;-67
2022/06/20 12:57:06;;;;;;;3.15;1.77;;;19.10;95.90;;;;;;4785821;30;20055;-68
2022/06/20 12:59:52;;;;;;;3.50;1.88;;;19.00;93.70;;;;;;4785673;30;20086;-67
2022/06/20 13:02:47;;;;;;;5.75;2.15;;;19.20;92.80;;;;;;4784862;30;20387;-66
2022/06/20 13:05:31;;;;;;;4.72;2.38;;;19.40;92.50;;;;;;4771778;30;20089;-68
2022/06/20 13:08:29;;;;;;;8.35;2.22;;;19.80;85.70;;;;;;4786538;29;20051;-67
2022/06/20 13:11:45;;;;;;;2.63;1.60;;;19.80;72.10;;;;;;4785430;29;20047;-68
2022/06/20 13:14:23;;;;;;;3.75;1.45;;;20.00;71.70;;;;;;4749812;30;20056;-67
2022/06/20 13:17:26;;;;;;;5.88;1.70;;;20.10;72.10;;;;;;4751012;30;20091;-68
2022/06/20 13:20:01;;;;;;;4.63;1.67;;;20.50;71.40;;;;;;4742672;30;20113;-67
2022/06/20 13:22:44;;;;;;;4.85;1.55;;;20.60;72.10;;;;;;4748183;30;20048;-69
2022/06/20 13:25:26;;;;;;;4.30;1.30;;;20.30;67.70;;;;;;4749547;30;20051;-67
2022/06/20 13:28:12;;;;;;;5.80;2.03;;;20.10;71.90;;;;;;4750248;30;20482;-68
2022/06/20 13:31:12;;;;;;;3.33;1.48;;;20.20;74.80;;;;;;4752665;30;20060;-69
2022/06/20 13:33:53;;;;;;;4.32;1.50;;;20.20;77.20;;;;;;4714062;30;20060;-67
2022/06/20 13:36:46;;;;;;;3.75;1.45;;;20.30;70.90;;;;;;4750477;30;20134;-68
2022/06/20 13:39:30;;;;;;;4.18;1.50;;;20.20;70.70;;;;;;4749668;30;20056;-69
2022/06/20 13:42:19;;;;;;;2.50;1.40;;;20.20;67.10;;;;;;4751288;30;20059;-67
2022/06/20 13:45:06;;;;;;;3.75;1.40;;;20.40;70.50;;;;;;4751090;30;20505;-67
2022/06/20 13:47:48;;;;;;;2.95;1.60;;;20.60;69.70;;;;;;4749666;30;20099;-67
2022/06/20 13:50:23;;;;;;;2.95;1.60;;;20.60;71.20;;;;;;4764057;30;20079;-67
2022/06/20 13:53:07;;;;;;;5.43;1.30;;;20.30;72.70;;;;;;4747727;30;20059;-68
2022/06/20 13:56:15;;;;;;;5.03;1.70;;;20.40;74.50;;;;;;4749945;30;20056;-67
2022/06/20 13:59:06;;;;;;;3.10;1.50;;;20.60;69.30;;;;;;4747114;30;20059;-69
2022/06/20 14:01:59;;;;;;;3.78;1.30;;;20.70;69.50;;;;;;4748178;30;20401;-69
2022/06/20 14:04:29;;;;;;;3.92;1.63;;;20.50;66.40;;;;;;4746037;30;20056;-68
2022/06/20 14:06:59;;;;;;;2.92;1.60;;;20.30;70.80;;;;;;4748841;30;20058;-67
2022/06/20 14:09:31;;;;;;;4.93;1.60;;;20.20;71.50;;;;;;4750370;30;20052;-68
2022/06/20 14:12:05;;;;;;;3.03;1.70;;;20.00;76.10;;;;;;4754896;30;20429;-68
2022/06/20 14:14:32;;;;;;;2.88;1.63;;;20.00;78.80;;;;;;4786805;29;20055;-66
2022/06/20 14:17:26;;;;;;;2.47;1.70;;;20.10;78.70;;;;;;4769924;30;20120;-67
2022/06/20 14:19:58;;;;;;;4.22;1.58;;;20.00;72.90;;;;;;4784464;29;20393;-66
2022/06/20 14:22:33;;;;;;;;;;;19.80;78.60;;;;;;4772959;30;20058;-67
2022/06/20 14:25:20;;;;;;;3.95;1.65;;;19.70;85.30;;;;;;4789348;29;19917;-68
2022/06/20 14:27:52;;;;;;;4.63;1.70;;;19.50;87.20;;;;;;4785166;29;20074;-68
2022/06/20 14:30:28;;;;;;;5.35;1.80;;;19.50;89.00;;;;;;4786675;30;20043;-68
2022/06/20 14:33:16;;;;;;;3.33;1.80;;;19.50;88.10;;;;;;4784790;30;20789;-67
2022/06/20 14:36:03;;;;;;;5.60;1.55;;;19.50;85.50;;;;;;4784167;29;20065;-68